메인 페이지
METAR-TAF:

METAR-TAF

공항 :

배턴루지, 루이지애나, 미국

위도: 30-32-14N, 경도: 091-08-49W, 고도: 21m

현재 날씨관측

예보는 19분 전, 00:53시(UTC)에 발표되었습니다.
동남동6kt
온도 27°C
습도 84%
기압 1015 hPa
시정: 16.1km
고도 9000ft 상공 구름 조금

METAR: KBTR 210053Z 12006KT 10SM FEW090 27/24 A2997 RMK AO2 SLP148 T02670239

시각: 20:12 (01:12 UTC)

예보

예보는 1 시간 46분 전, 23:26시(UTC)에 발표되었습니다.
예보 대상 시간: 21일 00시부터 21일 24시까지 (UTC)
남동9kt
시정: 10km
고도 4000ft 상공 구름 보통
고도 5000ft 상공 구름 많음
일시적
21일 00시부터 21일 02시까지 (UTC)
시정: 6.4km
고도 3000ft 상공 구름 많음
소나기
21일 1100시부터 (UTC)
4kt
시정: 10km
고도 2500ft 상공 구름 조금
고도 20000ft 상공 구름 보통
확률 30%
21일 12시부터 21일 13시까지 (UTC)
시정: 6.4km
고도 1500ft 상공 구름 많음
약한소나기
21일 1300시부터 (UTC)
5kt
시정: 10km
고도 2000ft 상공 구름 많음
고도 10000ft 상공 구름 많음
확률 30%
21일 13시부터 21일 19시까지 (UTC)
시정: 6.4km
고도 700ft 상공 흐림, 적란운.
뇌우, 약한비

TAF: KBTR 202326Z 2100/2124 13009KT P6SM SCT040 BKN050 TEMPO 2100/2102 4SM SHRA BKN030 FM211100 10004KT P6SM FEW025 SCT200 PROB30 2112/2113 4SM -SHRA BKN015 FM211300 10005KT P6SM BKN020 BKN100 PROB30 2113/2119 4SM -TSRA OVC007CB

4,000개 이상의 공항 관측 자료 및 예보 (METAR 및 TAF 보고).

지도상에서 검색 가능한 기상관측소가 노란 점과 빨간 점으로 표시되어 있습니다.

기상관측소 명을 보려면 표시 위로 마우스를 이동하세요.

날씨 관측과 예보를 보려면 클릭하세요.

지도 변경 : 확대하려면 엑스 표시가 있는 녹색 버튼, 축소하려면 빼기 표시가 있는 녹색 버튼, 다음 페이지의 지도를 보려면 녹색 화살표를 클릭하세요.


METAR-TAF: